Home > Products > Valid Products > TAF

000
FTUS45 KTWC 271700
TAFOLS
TAF
KOLS 271726Z 2718/2818 08006KT P6SM SKC
     FM280300 VRB03KT P6SM SKC=



000
FTUS45 KTWC 271700
TAFDUG
TAF
KDUG 271726Z 2718/2818 09008KT P6SM SKC
     FM280400 03006KT P6SM SKC
     FM281000 VRB03KT P6SM SKC=



000
FTUS45 KTWC 271700
TAFTUS
TAF
KTUS 271726Z 2718/2818 12014G22KT P6SM SKC
     FM272200 06007KT P6SM SKC
     FM280300 13008KT P6SM SKC
     FM281500 13013G21KT P6SM SKC=



000
FTUS45 KTWC 271700
TAFOLS
TAF
KOLS 271726Z 2718/2818 08006KT P6SM SKC
     FM280300 VRB03KT P6SM SKC=



000
FTUS45 KTWC 271100
TAFDUG
TAF
KDUG 271120Z 2712/2812 VRB04KT P6SM SKC
     FM271700 09009KT P6SM SKC
     FM280400 03006KT P6SM SKC
     FM281000 VRB03KT P6SM SKC=



000
FTUS45 KTWC 271100
TAFOLS
TAF
KOLS 271120Z 2712/2812 15005KT P6SM SKC
     FM271900 10008KT P6SM SKC
     FM280300 VRB03KT P6SM SKC=



000
FTUS45 KTWC 271100
TAFTUS
TAF
KTUS 271120Z 2712/2812 16009KT P6SM SKC
     FM271400 12012G20KT P6SM SKC
     FM272200 06007KT P6SM SKC
     FM280300 13008KT P6SM SKC=



000
FTUS45 KTWC 271100
TAFOLS
TAF
KOLS 271120Z 2712/2812 15005KT P6SM SKC
     FM271900 10008KT P6SM SKC
     FM280300 VRB03KT P6SM SKC=



000
FTUS45 KTWC 270500
TAFTUS
TAF
KTUS 270528Z 2706/2806 16004KT P6SM SKC
     FM270800 13009KT P6SM SKC
     FM271400 12012G20KT P6SM SKC
     FM272200 06007KT P6SM SKC
     FM280300 13008KT P6SM SKC=



000
FTUS45 KTWC 270500
TAFOLS
TAF
KOLS 270528Z 2706/2806 VRB03KT P6SM SKC
     FM271900 08007KT P6SM SKC
     FM280300 VRB03KT P6SM SKC=



000
FTUS45 KTWC 270500
TAFDUG
TAF
KDUG 270528Z 2706/2806 05007KT P6SM SKC
     FM271000 VRB04KT P6SM SKC
     FM271700 09009KT P6SM SKC
     FM280400 VRB04KT P6SM SKC=



000
FTUS45 KTWC 262300
TAFOLS
TAF
KOLS 262332Z 2700/2724 34008KT P6SM SKC
     FM270100 04005KT P6SM SKC
     FM270400 VRB03KT P6SM SKC
     FM272000 07006KT P6SM SKC=



000
FTUS45 KTWC 262300
TAFTUS
TAF
KTUS 262332Z 2700/2724 35008KT P6SM SKC
     FM270200 23005KT P6SM SKC
     FM270700 13008KT P6SM SKC
     FM272100 06007KT P6SM SKC=



000
FTUS45 KTWC 262300
TAFDUG
TAF
KDUG 262332Z 2700/2724 32007KT P6SM SKC
     FM270300 04006KT P6SM SKC
     FM271000 VRB04KT P6SM SKC
     FM271900 10008KT P6SM SKC=



000
FTUS45 KTWC 262300
TAFOLS
TAF
KOLS 262332Z 2700/2724 34008KT P6SM SKC
     FM270100 04005KT P6SM SKC
     FM270400 VRB03KT P6SM SKC
     FM272000 07006KT P6SM SKC=



000
FTUS45 KTWC 261700
TAFOLS
TAF
KOLS 261720Z 2618/2718 09004KT P6SM SKC
     FM262000 06008KT P6SM SKC
     FM270300 VRB04KT P6SM SKC=



000
FTUS45 KTWC 261700
TAFTUS
TAF
KTUS 261720Z 2618/2718 21005KT P6SM SKC
     FM262100 02008KT P6SM SKC
     FM270200 VRB04KT P6SM SKC
     FM270700 14007KT P6SM SKC=



000
FTUS45 KTWC 261700
TAFOLS
TAF
KOLS 261720Z 2618/2718 09004KT P6SM SKC
     FM262000 06008KT P6SM SKC
     FM270300 VRB04KT P6SM SKC=



000
FTUS45 KTWC 261700
TAFDUG
TAF
KDUG 261720Z 2618/2718 14005KT P6SM SKC
     FM262000 05008KT P6SM SKC
     FM270300 36007KT P6SM SKC
     FM271000 VRB04KT P6SM SKC=



000
FTUS45 KTWC 261100
TAFOLS
TAF
KOLS 261120Z 2612/2712 09004KT P6SM SKC
     FM262000 06008KT P6SM SKC
     FM270300 VRB04KT P6SM SKC=



000
FTUS45 KTWC 261100
TAFTUS
TAF
KTUS 261120Z 2612/2712 14007KT P6SM SKC
     FM262100 03008KT P6SM SKC
     FM270200 VRB04KT P6SM SKC
     FM270700 14007KT P6SM SKC=



000
FTUS45 KTWC 261100
TAFDUG
TAF
KDUG 261120Z 2612/2712 14005KT P6SM SKC
     FM262000 05008KT P6SM SKC
     FM270300 36007KT P6SM SKC
     FM271000 VRB04KT P6SM SKC=



000
FTUS45 KTWC 261100
TAFOLS
TAF
KOLS 261120Z 2612/2712 09004KT P6SM SKC
     FM262000 06008KT P6SM SKC
     FM270300 VRB04KT P6SM SKC=



000
FTUS45 KTWC 260500
TAFTUS
TAF
KTUS 260520Z 2606/2706 14007KT P6SM SKC
     FM262100 03008KT P6SM SKC
     FM270200 VRB04KT P6SM SKC=



000
FTUS45 KTWC 260500
TAFOLS
TAF
KOLS 260520Z 2606/2706 04004KT P6SM SKC
     FM262000 02009KT P6SM SKC
     FM270200 05004KT P6SM SKC=



000
FTUS45 KTWC 260500
TAFOLS
TAF
KOLS 260520Z 2606/2706 04004KT P6SM SKC
     FM262000 02009KT P6SM SKC
     FM270200 05004KT P6SM SKC=



000
FTUS45 KTWC 260500
TAFDUG
TAF
KDUG 260520Z 2606/2706 01006KT P6SM SKC
     FM262000 06008KT P6SM SKC=



000
FTUS45 KTWC 252300
TAFDUG
TAF
KDUG 252336Z 2600/2624 01006KT P6SM SKC
     FM262000 06008KT P6SM SKC=



000
FTUS45 KTWC 252300
TAFTUS
TAF
KTUS 252336Z 2600/2624 35008KT P6SM SKC
     FM260130 VRB04KT P6SM SKC
     FM260800 13009KT P6SM SKC
     FM262100 03008KT P6SM SKC=



000
FTUS45 KTWC 252300
TAFOLS
TAF
KOLS 252336Z 2600/2624 33010KT P6SM SKC
     FM260130 04003KT P6SM SKC
     FM262000 01009KT P6SM SKC=



000
FTUS45 KTWC 251700
TAFOLS
TAF
KOLS 251734Z 2518/2618 02011G18KT P6SM SKC
     FM252200 35010KT P6SM SKC
     FM260200 03008KT P6SM SKC=



000
FTUS45 KTWC 251700
TAFTUS
TAF
KTUS 251734Z 2518/2618 01008KT P6SM SKC
     FM252200 34007KT P6SM SKC
     FM260600 14008KT P6SM SKC=



000
FTUS45 KTWC 251700
TAFDUG
TAF
KDUG 251734Z 2518/2618 34008KT P6SM SKC
     FM252000 04010KT P6SM SKC
     FM260200 01008KT P6SM SKC
     FM261000 VRB03KT P6SM SKC=



000
FTUS45 KTWC 251700
TAFOLS
TAF
KOLS 251734Z 2518/2618 02011G18KT P6SM SKC
     FM252200 35010KT P6SM SKC
     FM260200 03008KT P6SM SKC=



000
FTUS45 KTWC 251400 AAA
TAFOLS
TAF AMD
KOLS 251429Z 2514/2612 03011G18KT P6SM SKC
     FM251500 08012KT P6SM SKC
     FM252200 05006KT P6SM SKC
     FM260200 VRB03KT P6SM SKC=



000
FTUS45 KTWC 251400 AAA
TAFOLS
TAF AMD
KOLS 251429Z 2514/2612 03011G18KT P6SM SKC
     FM251500 08012KT P6SM SKC
     FM252200 05006KT P6SM SKC
     FM260200 VRB03KT P6SM SKC=



000
FTUS45 KTWC 251300 AAA
TAFTUS
TAF AMD
KTUS 251325Z 2513/2612 12009KT P6SM SKC
     FM251500 09014G20KT P6SM SKC
     FM252200 33006KT P6SM SKC
     FM260600 14007KT P6SM SKC=



000
FTUS45 KTWC 251100
TAFOLS
TAF
KOLS 251134Z 2512/2612 VRB04KT P6SM SKC
     FM251500 08012KT P6SM SKC
     FM252200 05006KT P6SM SKC
     FM260200 VRB03KT P6SM SKC=



000
FTUS45 KTWC 251100
TAFTUS
TAF
KTUS 251134Z 2512/2612 13013KT P6SM SKC
     FM251800 09008KT P6SM SKC
     FM252200 33006KT P6SM SKC
     FM260600 14007KT P6SM SKC=



000
FTUS45 KTWC 251100
TAFOLS
TAF
KOLS 251134Z 2512/2612 VRB04KT P6SM SKC
     FM251500 08012KT P6SM SKC
     FM252200 05006KT P6SM SKC
     FM260200 VRB03KT P6SM SKC=



000
FTUS45 KTWC 251100
TAFDUG
TAF
KDUG 251134Z 2512/2612 02007KT P6SM SKC
     FM251800 06007KT P6SM SKC
     FM260200 01008KT P6SM SKC
     FM261000 VRB03KT P6SM SKC=



000
FTUS45 KTWC 250500
TAFTUS
TAF
KTUS 250520Z 2506/2606 33007KT P6SM SCT250
     FM251100 12007KT P6SM SKC
     FM252200 34007KT P6SM SKC
     FM260400 15005KT P6SM SKC=



000
FTUS45 KTWC 250500
TAFOLS
TAF
KOLS 250520Z 2506/2606 04006KT P6SM SCT250=



000
FTUS45 KTWC 250500
TAFDUG
TAF
KDUG 250520Z 2506/2606 01011KT P6SM SKC
     FM251100 08006KT P6SM SKC=



000
FTUS45 KTWC 250500
TAFOLS
TAF
KOLS 250520Z 2506/2606 04006KT P6SM SCT250=



000
FTUS45 KTWC 242300
TAFDUG
TAF
KDUG 242327Z 2500/2524 32015G22KT P6SM SCT250
     FM250300 01011KT P6SM SKC
     FM251100 08006KT P6SM SKC=



000
FTUS45 KTWC 242300
TAFTUS
TAF
KTUS 242327Z 2500/2524 33009KT P6SM SCT250
     FM251100 12007KT P6SM SKC=



000
FTUS45 KTWC 242300
TAFOLS
TAF
KOLS 242327Z 2500/2524 31007KT P6SM SCT250
     FM250300 03005KT P6SM SCT250=



000
FTUS45 KTWC 242300
TAFOLS
TAF
KOLS 242327Z 2500/2524 31007KT P6SM SCT250
     FM250300 03005KT P6SM SCT250=



000
FTUS45 KTWC 242000 AAA
TAFOLS
TAF AMD
KOLS 242050Z 2421/2518 31012G19KT P6SM SCT250
     FM250300 02005KT P6SM SKC
     FM250700 VRB03KT P6SM SKC=



000
FTUS45 KTWC 242000 AAA
TAFOLS
TAF AMD
KOLS 242050Z 2421/2518 31012G19KT P6SM SCT250
     FM250300 02005KT P6SM SKC
     FM250700 VRB03KT P6SM SKC=



    US Dept of Commerce
    National Oceanic and Atmospheric Administration
    National Weather Service
    1325 East West Highway
    Silver Spring, MD 20910
    Page Author: NWS Internet Services Team
Disclaimer
Information Quality
Credits
Glossary
Privacy Policy
Freedom of Information Act (FOIA)
About Us
Career Opportunities